sensor_id;sensor_type;location;lat;lon;timestamp;pressure;altitude;pressure_sealevel;temperature;humidity
60240;BME280;46102;39.012;-7.064;2022-07-11T00:00:13;98085.06;;;27.31;26.53
60240;BME280;46102;39.012;-7.064;2022-07-11T00:02:15;98093.25;;;27.25;26.50
60240;BME280;46102;39.012;-7.064;2022-07-11T00:04:16;98103.72;;;27.25;26.47
60240;BME280;46102;39.012;-7.064;2022-07-11T00:06:17;98107.75;;;27.24;26.87
60240;BME280;46102;39.012;-7.064;2022-07-11T00:08:17;98111.28;;;27.28;27.28
60240;BME280;46102;39.012;-7.064;2022-07-11T00:10:18;98114.69;;;27.19;27.61
60240;BME280;46102;39.012;-7.064;2022-07-11T00:12:19;98112.13;;;27.08;27.70
60240;BME280;46102;39.012;-7.064;2022-07-11T00:14:22;98108.78;;;26.97;27.75
60240;BME280;46102;39.012;-7.064;2022-07-11T00:16:22;98111.94;;;26.83;28.11
60240;BME280;46102;39.012;-7.064;2022-07-11T00:18:23;98107.25;;;26.76;28.15
60240;BME280;46102;39.012;-7.064;2022-07-11T00:20:25;98099.72;;;26.73;28.34
60240;BME280;46102;39.012;-7.064;2022-07-11T00:22:26;98100.56;;;26.70;28.52
60240;BME280;46102;39.012;-7.064;2022-07-11T00:24:27;98101.34;;;26.70;28.64
60240;BME280;46102;39.012;-7.064;2022-07-11T00:26:27;98110.97;;;26.73;28.81
60240;BME280;46102;39.012;-7.064;2022-07-11T00:28:29;98110.00;;;26.79;28.12
60240;BME280;46102;39.012;-7.064;2022-07-11T00:30:29;98104.53;;;26.72;27.88
60240;BME280;46102;39.012;-7.064;2022-07-11T00:32:30;98104.78;;;26.62;28.11
60240;BME280;46102;39.012;-7.064;2022-07-11T00:34:31;98103.97;;;26.61;27.76
60240;BME280;46102;39.012;-7.064;2022-07-11T00:36:31;98103.59;;;26.59;27.76
60240;BME280;46102;39.012;-7.064;2022-07-11T00:38:32;98093.81;;;26.47;28.03
60240;BME280;46102;39.012;-7.064;2022-07-11T00:40:33;98096.97;;;26.49;27.84
60240;BME280;46102;39.012;-7.064;2022-07-11T00:42:33;98101.25;;;26.37;28.00
60240;BME280;46102;39.012;-7.064;2022-07-11T00:44:34;98102.56;;;26.33;28.31
60240;BME280;46102;39.012;-7.064;2022-07-11T00:46:36;98097.34;;;26.31;28.03
60240;BME280;46102;39.012;-7.064;2022-07-11T00:48:37;98101.31;;;26.34;28.38
60240;BME280;46102;39.012;-7.064;2022-07-11T00:50:38;98095.13;;;26.23;28.38
60240;BME280;46102;39.012;-7.064;2022-07-11T00:52:40;98092.78;;;26.21;28.30
60240;BME280;46102;39.012;-7.064;2022-07-11T00:54:41;98085.63;;;26.16;28.40
60240;BME280;46102;39.012;-7.064;2022-07-11T00:56:44;98090.53;;;26.12;28.70
60240;BME280;46102;39.012;-7.064;2022-07-11T00:58:46;98085.75;;;26.09;28.74
60240;BME280;46102;39.012;-7.064;2022-07-11T01:00:47;98070.72;;;26.00;28.80
60240;BME280;46102;39.012;-7.064;2022-07-11T01:02:48;98073.09;;;26.01;28.94
60240;BME280;46102;39.012;-7.064;2022-07-11T01:04:49;98073.16;;;25.98;28.77
60240;BME280;46102;39.012;-7.064;2022-07-11T01:06:50;98067.69;;;25.90;29.05
60240;BME280;46102;39.012;-7.064;2022-07-11T01:08:51;98065.78;;;25.84;29.58
60240;BME280;46102;39.012;-7.064;2022-07-11T01:10:51;98055.84;;;25.79;29.93
60240;BME280;46102;39.012;-7.064;2022-07-11T01:12:52;98060.00;;;25.71;30.12
60240;BME280;46102;39.012;-7.064;2022-07-11T01:14:54;98061.03;;;25.61;30.00
60240;BME280;46102;39.012;-7.064;2022-07-11T01:16:55;98056.94;;;25.65;29.95
60240;BME280;46102;39.012;-7.064;2022-07-11T01:18:56;98060.50;;;25.66;30.35
60240;BME280;46102;39.012;-7.064;2022-07-11T01:20:56;98046.75;;;25.51;30.11
60240;BME280;46102;39.012;-7.064;2022-07-11T01:23:03;98048.69;;;25.54;30.09
60240;BME280;46102;39.012;-7.064;2022-07-11T01:25:03;98049.78;;;25.61;29.91
60240;BME280;46102;39.012;-7.064;2022-07-11T01:27:05;98051.22;;;25.49;30.13
60240;BME280;46102;39.012;-7.064;2022-07-11T01:29:10;98048.59;;;25.38;30.47
60240;BME280;46102;39.012;-7.064;2022-07-11T01:31:11;98052.69;;;25.33;30.40
60240;BME280;46102;39.012;-7.064;2022-07-11T01:33:12;98048.41;;;25.49;30.29
60240;BME280;46102;39.012;-7.064;2022-07-11T01:35:13;98057.03;;;25.38;30.35
60240;BME280;46102;39.012;-7.064;2022-07-11T01:37:14;98048.66;;;25.34;30.65
60240;BME280;46102;39.012;-7.064;2022-07-11T01:39:14;98046.41;;;25.26;31.34
60240;BME280;46102;39.012;-7.064;2022-07-11T01:41:15;98040.50;;;25.20;31.48
60240;BME280;46102;39.012;-7.064;2022-07-11T01:43:16;98036.09;;;25.19;31.56
60240;BME280;46102;39.012;-7.064;2022-07-11T01:45:16;98033.72;;;25.18;31.46
60240;BME280;46102;39.012;-7.064;2022-07-11T01:47:17;98040.66;;;25.09;31.66
60240;BME280;46102;39.012;-7.064;2022-07-11T01:49:18;98036.97;;;25.12;32.26
60240;BME280;46102;39.012;-7.064;2022-07-11T01:51:19;98026.25;;;25.07;32.41
60240;BME280;46102;39.012;-7.064;2022-07-11T01:53:19;98037.13;;;25.05;32.25
60240;BME280;46102;39.012;-7.064;2022-07-11T01:55:20;98040.00;;;25.02;32.46
60240;BME280;46102;39.012;-7.064;2022-07-11T01:57:21;98042.09;;;24.94;32.74
60240;BME280;46102;39.012;-7.064;2022-07-11T01:59:22;98033.03;;;24.86;32.88
60240;BME280;46102;39.012;-7.064;2022-07-11T02:01:22;98038.75;;;24.79;33.35
60240;BME280;46102;39.012;-7.064;2022-07-11T02:03:23;98034.44;;;24.75;32.96
60240;BME280;46102;39.012;-7.064;2022-07-11T02:05:24;98043.63;;;24.75;33.12
60240;BME280;46102;39.012;-7.064;2022-07-11T02:07:24;98037.56;;;24.77;32.65
60240;BME280;46102;39.012;-7.064;2022-07-11T02:09:44;98020.56;;;24.64;32.49
60240;BME280;46102;39.012;-7.064;2022-07-11T02:11:45;98025.84;;;24.58;32.81
60240;BME280;46102;39.012;-7.064;2022-07-11T02:13:45;98028.22;;;24.60;32.70
60240;BME280;46102;39.012;-7.064;2022-07-11T02:15:47;98035.59;;;24.50;32.72
60240;BME280;46102;39.012;-7.064;2022-07-11T02:17:49;98030.00;;;24.46;32.63
60240;BME280;46102;39.012;-7.064;2022-07-11T02:19:50;98026.41;;;24.46;32.86
60240;BME280;46102;39.012;-7.064;2022-07-11T02:21:51;98029.75;;;24.37;32.96
60240;BME280;46102;39.012;-7.064;2022-07-11T02:23:51;98033.03;;;24.32;32.92
60240;BME280;46102;39.012;-7.064;2022-07-11T02:25:52;98032.66;;;24.30;33.23
60240;BME280;46102;39.012;-7.064;2022-07-11T02:27:53;98025.03;;;24.30;33.35
60240;BME280;46102;39.012;-7.064;2022-07-11T02:29:54;98033.94;;;24.22;33.27
60240;BME280;46102;39.012;-7.064;2022-07-11T02:31:55;98028.75;;;24.20;33.28
60240;BME280;46102;39.012;-7.064;2022-07-11T02:33:56;98028.50;;;24.11;33.45
60240;BME280;46102;39.012;-7.064;2022-07-11T02:35:56;98025.00;;;24.03;33.70
60240;BME280;46102;39.012;-7.064;2022-07-11T02:37:57;98015.44;;;24.01;33.86
60240;BME280;46102;39.012;-7.064;2022-07-11T02:39:58;98023.94;;;23.94;34.10
60240;BME280;46102;39.012;-7.064;2022-07-11T02:41:58;98025.50;;;23.95;33.97
60240;BME280;46102;39.012;-7.064;2022-07-11T02:43:59;98019.53;;;23.93;34.23
60240;BME280;46102;39.012;-7.064;2022-07-11T02:46:00;98015.84;;;23.99;34.14
60240;BME280;46102;39.012;-7.064;2022-07-11T02:48:01;98017.47;;;23.97;34.19
60240;BME280;46102;39.012;-7.064;2022-07-11T02:50:02;98010.38;;;23.88;34.33
60240;BME280;46102;39.012;-7.064;2022-07-11T02:52:04;98017.19;;;23.87;34.54
60240;BME280;46102;39.012;-7.064;2022-07-11T02:54:04;98008.75;;;23.91;34.74
60240;BME280;46102;39.012;-7.064;2022-07-11T02:56:05;98012.00;;;23.86;34.62
60240;BME280;46102;39.012;-7.064;2022-07-11T02:58:06;98000.41;;;23.87;35.00
60240;BME280;46102;39.012;-7.064;2022-07-11T03:00:11;98010.81;;;23.87;34.94
60240;BME280;46102;39.012;-7.064;2022-07-11T03:02:12;98001.28;;;23.81;35.35
60240;BME280;46102;39.012;-7.064;2022-07-11T03:04:13;98002.94;;;23.75;35.44
60240;BME280;46102;39.012;-7.064;2022-07-11T03:06:14;98006.66;;;23.64;35.69
60240;BME280;46102;39.012;-7.064;2022-07-11T03:08:14;98005.53;;;23.58;35.72
60240;BME280;46102;39.012;-7.064;2022-07-11T03:10:15;98006.31;;;23.59;36.03
60240;BME280;46102;39.012;-7.064;2022-07-11T03:12:16;98005.13;;;23.60;36.17
60240;BME280;46102;39.012;-7.064;2022-07-11T03:14:16;98007.84;;;23.63;36.25
60240;BME280;46102;39.012;-7.064;2022-07-11T03:16:17;98003.41;;;23.66;36.75
60240;BME280;46102;39.012;-7.064;2022-07-11T03:18:18;98004.28;;;23.59;36.57
60240;BME280;46102;39.012;-7.064;2022-07-11T03:20:18;98004.75;;;23.54;37.00
60240;BME280;46102;39.012;-7.064;2022-07-11T03:22:19;98003.19;;;23.53;37.03
60240;BME280;46102;39.012;-7.064;2022-07-11T03:24:20;98007.53;;;23.58;37.41
60240;BME280;46102;39.012;-7.064;2022-07-11T03:26:20;97998.84;;;23.48;37.75
60240;BME280;46102;39.012;-7.064;2022-07-11T03:28:21;98002.47;;;23.45;37.79
60240;BME280;46102;39.012;-7.064;2022-07-11T03:30:22;98005.72;;;23.40;38.12
60240;BME280;46102;39.012;-7.064;2022-07-11T03:32:23;98002.16;;;23.36;38.27
60240;BME280;46102;39.012;-7.064;2022-07-11T03:34:24;98001.41;;;23.32;38.49
60240;BME280;46102;39.012;-7.064;2022-07-11T03:36:24;98004.25;;;23.28;38.72
60240;BME280;46102;39.012;-7.064;2022-07-11T03:38:26;98000.28;;;23.26;38.73
60240;BME280;46102;39.012;-7.064;2022-07-11T03:40:28;97998.28;;;23.23;38.94
60240;BME280;46102;39.012;-7.064;2022-07-11T03:42:28;97995.97;;;23.18;39.13
60240;BME280;46102;39.012;-7.064;2022-07-11T03:44:29;97995.22;;;23.10;39.37
60240;BME280;46102;39.012;-7.064;2022-07-11T03:46:30;97998.47;;;23.05;39.70
60240;BME280;46102;39.012;-7.064;2022-07-11T03:48:30;98001.31;;;23.01;39.78
60240;BME280;46102;39.012;-7.064;2022-07-11T03:50:31;98002.53;;;22.97;39.90
60240;BME280;46102;39.012;-7.064;2022-07-11T03:52:32;97999.72;;;23.00;39.89
60240;BME280;46102;39.012;-7.064;2022-07-11T03:54:33;98002.94;;;22.95;39.87
60240;BME280;46102;39.012;-7.064;2022-07-11T03:56:33;98004.59;;;22.89;39.95
60240;BME280;46102;39.012;-7.064;2022-07-11T03:58:34;98008.22;;;22.82;40.01
60240;BME280;46102;39.012;-7.064;2022-07-11T04:00:35;98010.69;;;22.77;39.94
60240;BME280;46102;39.012;-7.064;2022-07-11T04:02:36;98013.91;;;22.72;40.18
60240;BME280;46102;39.012;-7.064;2022-07-11T04:04:36;98011.88;;;22.76;40.11
60240;BME280;46102;39.012;-7.064;2022-07-11T04:06:37;98011.94;;;22.72;39.95
60240;BME280;46102;39.012;-7.064;2022-07-11T04:08:38;98012.31;;;22.71;39.96
60240;BME280;46102;39.012;-7.064;2022-07-11T04:10:40;98005.13;;;22.70;39.59
60240;BME280;46102;39.012;-7.064;2022-07-11T04:12:40;98017.91;;;22.71;39.67
60240;BME280;46102;39.012;-7.064;2022-07-11T04:14:41;98012.78;;;22.62;39.56
60240;BME280;46102;39.012;-7.064;2022-07-11T04:16:42;98010.00;;;22.62;39.62
60240;BME280;46102;39.012;-7.064;2022-07-11T04:18:42;98013.16;;;22.68;39.71
60240;BME280;46102;39.012;-7.064;2022-07-11T04:20:43;98013.22;;;22.57;39.69
60240;BME280;46102;39.012;-7.064;2022-07-11T04:22:44;98012.84;;;22.51;39.86
60240;BME280;46102;39.012;-7.064;2022-07-11T04:24:44;98016.47;;;22.48;39.55
60240;BME280;46102;39.012;-7.064;2022-07-11T04:26:45;98015.31;;;22.42;40.03
60240;BME280;46102;39.012;-7.064;2022-07-11T04:28:46;98012.09;;;22.47;39.92
60240;BME280;46102;39.012;-7.064;2022-07-11T04:30:47;98014.88;;;22.47;40.20
60240;BME280;46102;39.012;-7.064;2022-07-11T04:32:48;98020.13;;;22.38;40.09
60240;BME280;46102;39.012;-7.064;2022-07-11T04:34:49;98016.19;;;22.32;40.26
60240;BME280;46102;39.012;-7.064;2022-07-11T04:36:50;98020.63;;;22.26;40.54
60240;BME280;46102;39.012;-7.064;2022-07-11T04:38:50;98021.81;;;22.21;40.78
60240;BME280;46102;39.012;-7.064;2022-07-11T04:40:51;98028.22;;;22.21;40.75
60240;BME280;46102;39.012;-7.064;2022-07-11T04:42:52;98027.41;;;22.17;40.85
60240;BME280;46102;39.012;-7.064;2022-07-11T04:44:53;98024.63;;;22.17;41.12
60240;BME280;46102;39.012;-7.064;2022-07-11T04:46:54;98015.84;;;22.15;40.96
60240;BME280;46102;39.012;-7.064;2022-07-11T04:48:55;98027.44;;;22.10;41.13
60240;BME280;46102;39.012;-7.064;2022-07-11T04:50:56;98023.88;;;22.06;41.24
60240;BME280;46102;39.012;-7.064;2022-07-11T04:52:56;98024.31;;;22.01;41.64
60240;BME280;46102;39.012;-7.064;2022-07-11T04:54:57;98031.91;;;21.97;41.64
60240;BME280;46102;39.012;-7.064;2022-07-11T04:56:58;98026.34;;;21.93;42.08
60240;BME280;46102;39.012;-7.064;2022-07-11T04:58:58;98029.94;;;21.90;42.24
60240;BME280;46102;39.012;-7.064;2022-07-11T05:01:00;98036.69;;;21.93;42.19
60240;BME280;46102;39.012;-7.064;2022-07-11T05:03:01;98027.56;;;21.89;42.48
60240;BME280;46102;39.012;-7.064;2022-07-11T05:05:02;98028.75;;;21.88;42.87
60240;BME280;46102;39.012;-7.064;2022-07-11T05:07:03;98037.56;;;21.79;42.60
60240;BME280;46102;39.012;-7.064;2022-07-11T05:09:04;98039.97;;;21.77;43.04
60240;BME280;46102;39.012;-7.064;2022-07-11T05:11:08;98034.81;;;21.72;43.01
60240;BME280;46102;39.012;-7.064;2022-07-11T05:13:08;98030.81;;;21.69;42.95
60240;BME280;46102;39.012;-7.064;2022-07-11T05:15:09;98039.63;;;21.60;43.06
60240;BME280;46102;39.012;-7.064;2022-07-11T05:17:10;98033.25;;;21.60;43.24
60240;BME280;46102;39.012;-7.064;2022-07-11T05:19:11;98038.41;;;21.61;43.32
60240;BME280;46102;39.012;-7.064;2022-07-11T05:21:11;98040.00;;;21.62;43.23
60240;BME280;46102;39.012;-7.064;2022-07-11T05:23:12;98039.25;;;21.55;43.49
60240;BME280;46102;39.012;-7.064;2022-07-11T05:25:13;98034.84;;;21.57;43.17
60240;BME280;46102;39.012;-7.064;2022-07-11T05:27:14;98037.22;;;21.62;43.15
60240;BME280;46102;39.012;-7.064;2022-07-11T05:29:14;98050.00;;;21.60;43.65
60240;BME280;46102;39.012;-7.064;2022-07-11T05:31:15;98050.38;;;21.62;43.35
60240;BME280;46102;39.012;-7.064;2022-07-11T05:33:16;98059.13;;;21.68;43.57
60240;BME280;46102;39.012;-7.064;2022-07-11T05:35:16;98053.13;;;21.73;43.21
60240;BME280;46102;39.012;-7.064;2022-07-11T05:37:17;98058.72;;;21.69;43.52
60240;BME280;46102;39.012;-7.064;2022-07-11T05:39:18;98056.38;;;21.64;43.45
60240;BME280;46102;39.012;-7.064;2022-07-11T05:41:18;98059.13;;;21.71;43.51
60240;BME280;46102;39.012;-7.064;2022-07-11T05:43:19;98060.31;;;21.77;43.39
60240;BME280;46102;39.012;-7.064;2022-07-11T05:45:20;98067.88;;;21.77;43.44
60240;BME280;46102;39.012;-7.064;2022-07-11T05:47:20;98071.84;;;21.79;43.39
60240;BME280;46102;39.012;-7.064;2022-07-11T05:49:21;98066.28;;;21.72;43.85
60240;BME280;46102;39.012;-7.064;2022-07-11T05:51:22;98062.72;;;21.72;43.67
60240;BME280;46102;39.012;-7.064;2022-07-11T05:53:22;98072.28;;;21.71;43.92
60240;BME280;46102;39.012;-7.064;2022-07-11T05:55:23;98064.31;;;21.69;43.69
60240;BME280;46102;39.012;-7.064;2022-07-11T05:57:24;98079.84;;;21.77;43.74
60240;BME280;46102;39.012;-7.064;2022-07-11T05:59:25;98077.44;;;21.79;43.73
60240;BME280;46102;39.012;-7.064;2022-07-11T06:01:26;98078.25;;;21.80;43.74
60240;BME280;46102;39.012;-7.064;2022-07-11T06:03:27;98082.19;;;21.86;43.80
60240;BME280;46102;39.012;-7.064;2022-07-11T06:05:27;98080.63;;;21.89;43.67
60240;BME280;46102;39.012;-7.064;2022-07-11T06:07:28;98082.19;;;21.90;43.68
60240;BME280;46102;39.012;-7.064;2022-07-11T06:09:47;98080.16;;;22.01;43.27
60240;BME280;46102;39.012;-7.064;2022-07-11T06:11:48;98082.56;;;22.02;43.45
60240;BME280;46102;39.012;-7.064;2022-07-11T06:13:50;98078.13;;;22.12;43.24
60240;BME280;46102;39.012;-7.064;2022-07-11T06:15:51;98080.91;;;22.12;43.51
60240;BME280;46102;39.012;-7.064;2022-07-11T06:17:51;98078.50;;;22.14;43.05
60240;BME280;46102;39.012;-7.064;2022-07-11T06:19:52;98082.13;;;22.11;43.43
60240;BME280;46102;39.012;-7.064;2022-07-11T06:21:53;98083.31;;;22.14;43.21
60240;BME280;46102;39.012;-7.064;2022-07-11T06:23:54;98084.50;;;22.16;43.20
60240;BME280;46102;39.012;-7.064;2022-07-11T06:25:55;98089.66;;;22.25;42.86
60240;BME280;46102;39.012;-7.064;2022-07-11T06:27:56;98087.28;;;22.23;43.07
60240;BME280;46102;39.012;-7.064;2022-07-11T06:29:57;98084.09;;;22.25;42.92
60240;BME280;46102;39.012;-7.064;2022-07-11T06:31:58;98090.47;;;22.26;42.68
60240;BME280;46102;39.012;-7.064;2022-07-11T06:33:58;98091.16;;;22.44;42.49
60240;BME280;46102;39.012;-7.064;2022-07-11T06:35:59;98090.69;;;22.56;42.35
60240;BME280;46102;39.012;-7.064;2022-07-11T06:38:00;98093.00;;;22.65;42.17
60240;BME280;46102;39.012;-7.064;2022-07-11T06:40:01;98093.72;;;22.80;41.91
60240;BME280;46102;39.012;-7.064;2022-07-11T06:42:01;98093.28;;;22.85;41.80
60240;BME280;46102;39.012;-7.064;2022-07-11T06:44:02;98090.47;;;22.92;42.04
60240;BME280;46102;39.012;-7.064;2022-07-11T06:46:03;98085.94;;;23.09;41.80
60240;BME280;46102;39.012;-7.064;2022-07-11T06:48:05;98090.63;;;23.23;41.46
60240;BME280;46102;39.012;-7.064;2022-07-11T06:50:06;98088.13;;;23.32;41.33
60240;BME280;46102;39.012;-7.064;2022-07-11T06:52:07;98086.47;;;23.42;41.34
60240;BME280;46102;39.012;-7.064;2022-07-11T06:54:07;98089.13;;;23.53;41.19
60240;BME280;46102;39.012;-7.064;2022-07-11T06:56:08;98099.03;;;23.64;41.04
60240;BME280;46102;39.012;-7.064;2022-07-11T06:58:09;98097.69;;;23.80;40.72
60240;BME280;46102;39.012;-7.064;2022-07-11T07:00:10;98095.13;;;23.96;40.44
60240;BME280;46102;39.012;-7.064;2022-07-11T07:02:11;98093.88;;;24.01;40.07
60240;BME280;46102;39.012;-7.064;2022-07-11T07:04:12;98089.69;;;24.16;39.96
60240;BME280;46102;39.012;-7.064;2022-07-11T07:06:13;98105.00;;;24.39;39.91
60240;BME280;46102;39.012;-7.064;2022-07-11T07:08:16;98094.09;;;24.48;39.63
60240;BME280;46102;39.012;-7.064;2022-07-11T07:10:18;98097.53;;;24.59;39.51
60240;BME280;46102;39.012;-7.064;2022-07-11T07:12:18;98103.31;;;24.76;39.12
60240;BME280;46102;39.012;-7.064;2022-07-11T07:14:19;98097.59;;;24.83;38.50
60240;BME280;46102;39.012;-7.064;2022-07-11T07:16:20;98106.25;;;24.92;38.90
60240;BME280;46102;39.012;-7.064;2022-07-11T07:18:20;98102.06;;;25.04;38.15
60240;BME280;46102;39.012;-7.064;2022-07-11T07:20:21;98103.91;;;25.14;38.22
60240;BME280;46102;39.012;-7.064;2022-07-11T07:22:22;98109.63;;;25.34;37.93
60240;BME280;46102;39.012;-7.064;2022-07-11T07:24:23;98103.56;;;25.59;37.15
60240;BME280;46102;39.012;-7.064;2022-07-11T07:26:23;98107.69;;;25.74;36.70
60240;BME280;46102;39.012;-7.064;2022-07-11T07:28:24;98095.53;;;25.81;36.49
60240;BME280;46102;39.012;-7.064;2022-07-11T07:30:28;98100.66;;;25.86;36.45
60240;BME280;46102;39.012;-7.064;2022-07-11T07:32:29;98099.59;;;26.00;36.49
60240;BME280;46102;39.012;-7.064;2022-07-11T07:34:30;98097.66;;;26.17;36.26
60240;BME280;46102;39.012;-7.064;2022-07-11T07:36:30;98092.31;;;26.23;35.74
60240;BME280;46102;39.012;-7.064;2022-07-11T07:38:31;98091.75;;;26.31;35.56
60240;BME280;46102;39.012;-7.064;2022-07-11T07:40:32;98086.59;;;26.46;35.44
60240;BME280;46102;39.012;-7.064;2022-07-11T07:42:32;98089.22;;;26.57;34.13
60240;BME280;46102;39.012;-7.064;2022-07-11T07:44:33;98095.47;;;26.65;33.94
60240;BME280;46102;39.012;-7.064;2022-07-11T07:46:34;98094.53;;;26.88;33.85
60240;BME280;46102;39.012;-7.064;2022-07-11T07:48:36;98095.41;;;27.17;33.28
60240;BME280;46102;39.012;-7.064;2022-07-11T07:50:36;98097.03;;;27.35;32.28
60240;BME280;46102;39.012;-7.064;2022-07-11T07:52:37;98100.13;;;27.40;31.85
60240;BME280;46102;39.012;-7.064;2022-07-11T07:54:38;98098.59;;;27.52;31.74
60240;BME280;46102;39.012;-7.064;2022-07-11T07:56:39;98101.91;;;27.64;31.30
60240;BME280;46102;39.012;-7.064;2022-07-11T07:58:39;98103.28;;;27.72;31.24
60240;BME280;46102;39.012;-7.064;2022-07-11T08:00:40;98102.41;;;27.75;30.85
60240;BME280;46102;39.012;-7.064;2022-07-11T08:03:05;98104.00;;;27.92;30.52
60240;BME280;46102;39.012;-7.064;2022-07-11T08:05:06;98106.44;;;28.19;30.10
60240;BME280;46102;39.012;-7.064;2022-07-11T08:07:07;98108.63;;;28.41;29.48
60240;BME280;46102;39.012;-7.064;2022-07-11T08:09:07;98101.00;;;28.54;29.46
60240;BME280;46102;39.012;-7.064;2022-07-11T08:11:08;98105.75;;;28.57;29.02
60240;BME280;46102;39.012;-7.064;2022-07-11T08:13:09;98110.38;;;28.64;28.83
60240;BME280;46102;39.012;-7.064;2022-07-11T08:15:10;98107.13;;;28.78;28.82
60240;BME280;46102;39.012;-7.064;2022-07-11T08:17:11;98113.22;;;29.02;28.67
60240;BME280;46102;39.012;-7.064;2022-07-11T08:19:11;98113.03;;;29.10;28.44
60240;BME280;46102;39.012;-7.064;2022-07-11T08:21:12;98106.31;;;29.29;28.48
60240;BME280;46102;39.012;-7.064;2022-07-11T08:23:13;98109.34;;;29.47;27.61
60240;BME280;46102;39.012;-7.064;2022-07-11T08:25:14;98110.81;;;29.52;27.80
60240;BME280;46102;39.012;-7.064;2022-07-11T08:27:14;98113.63;;;29.52;27.82
60240;BME280;46102;39.012;-7.064;2022-07-11T08:29:15;98111.34;;;29.73;27.73
60240;BME280;46102;39.012;-7.064;2022-07-11T08:31:16;98113.56;;;29.78;27.85
60240;BME280;46102;39.012;-7.064;2022-07-11T08:33:17;98104.72;;;29.88;28.04
60240;BME280;46102;39.012;-7.064;2022-07-11T08:35:18;98103.94;;;30.10;27.53
60240;BME280;46102;39.012;-7.064;2022-07-11T08:37:19;98105.56;;;30.33;26.96
60240;BME280;46102;39.012;-7.064;2022-07-11T08:39:19;98108.84;;;30.63;26.40
60240;BME280;46102;39.012;-7.064;2022-07-11T08:41:20;98101.91;;;30.86;26.42
60240;BME280;46102;39.012;-7.064;2022-07-11T08:43:27;98095.53;;;31.04;26.41
60240;BME280;46102;39.012;-7.064;2022-07-11T08:45:31;98095.25;;;31.20;26.41
60240;BME280;46102;39.012;-7.064;2022-07-11T08:47:32;98093.72;;;31.38;25.96
60240;BME280;46102;39.012;-7.064;2022-07-11T08:49:33;98095.53;;;31.63;25.33
60240;BME280;46102;39.012;-7.064;2022-07-11T08:51:37;98092.53;;;31.66;25.22
60240;BME280;46102;39.012;-7.064;2022-07-11T08:53:39;98095.38;;;31.76;24.92
60240;BME280;46102;39.012;-7.064;2022-07-11T08:55:41;98096.66;;;31.93;24.62
60240;BME280;46102;39.012;-7.064;2022-07-11T08:57:42;98091.59;;;32.06;24.58
60240;BME280;46102;39.012;-7.064;2022-07-11T08:59:43;98093.50;;;32.09;24.35
60240;BME280;46102;39.012;-7.064;2022-07-11T09:01:46;98093.97;;;32.08;24.30
60240;BME280;46102;39.012;-7.064;2022-07-11T09:03:49;98089.25;;;32.14;24.19
60240;BME280;46102;39.012;-7.064;2022-07-11T09:05:50;98091.25;;;32.32;24.21
60240;BME280;46102;39.012;-7.064;2022-07-11T09:07:51;98100.06;;;32.52;23.90
60240;BME280;46102;39.012;-7.064;2022-07-11T09:09:52;98094.44;;;32.86;23.51
60240;BME280;46102;39.012;-7.064;2022-07-11T09:11:55;98101.47;;;33.00;23.20
60240;BME280;46102;39.012;-7.064;2022-07-11T09:13:56;98096.88;;;33.11;23.18
60240;BME280;46102;39.012;-7.064;2022-07-11T09:16:04;98091.06;;;33.30;22.80
60240;BME280;46102;39.012;-7.064;2022-07-11T09:20:24;98104.00;;;33.55;22.22
60240;BME280;46102;39.012;-7.064;2022-07-11T09:22:25;98106.25;;;33.75;22.48
60240;BME280;46102;39.012;-7.064;2022-07-11T09:27:15;98095.63;;;33.85;21.21
60240;BME280;46102;39.012;-7.064;2022-07-11T09:29:18;98091.53;;;34.00;21.63
60240;BME280;46102;39.012;-7.064;2022-07-11T09:31:22;98093.66;;;34.30;21.04
60240;BME280;46102;39.012;-7.064;2022-07-11T09:33:23;98096.59;;;34.65;20.86
60240;BME280;46102;39.012;-7.064;2022-07-11T09:35:26;98087.34;;;34.85;20.68
60240;BME280;46102;39.012;-7.064;2022-07-11T09:37:42;98089.56;;;35.11;20.01
60240;BME280;46102;39.012;-7.064;2022-07-11T09:39:43;98089.91;;;35.33;19.52
60240;BME280;46102;39.012;-7.064;2022-07-11T09:41:47;98079.88;;;35.58;19.46
60240;BME280;46102;39.012;-7.064;2022-07-11T09:43:50;98084.38;;;35.65;19.09
60240;BME280;46102;39.012;-7.064;2022-07-11T09:45:51;98085.47;;;35.68;19.07
60240;BME280;46102;39.012;-7.064;2022-07-11T09:47:56;98087.53;;;35.67;19.19
60240;BME280;46102;39.012;-7.064;2022-07-11T09:49:57;98085.94;;;35.86;18.92
60240;BME280;46102;39.012;-7.064;2022-07-11T09:52:10;98083.72;;;36.17;18.66
60240;BME280;46102;39.012;-7.064;2022-07-11T09:54:11;98074.84;;;36.41;18.48
60240;BME280;46102;39.012;-7.064;2022-07-11T09:56:14;98076.34;;;36.62;17.81
60240;BME280;46102;39.012;-7.064;2022-07-11T09:58:16;98084.06;;;36.82;17.56
60240;BME280;46102;39.012;-7.064;2022-07-11T10:00:17;98070.16;;;37.01;16.92
60240;BME280;46102;39.012;-7.064;2022-07-11T10:02:17;98076.56;;;37.28;16.92
60240;BME280;46102;39.012;-7.064;2022-07-11T10:04:19;98077.25;;;37.55;16.50
60240;BME280;46102;39.012;-7.064;2022-07-11T10:06:20;98073.94;;;37.67;15.74
60240;BME280;46102;39.012;-7.064;2022-07-11T10:08:22;98082.72;;;37.58;15.64
60240;BME280;46102;39.012;-7.064;2022-07-11T10:10:23;98075.47;;;37.63;15.54
60240;BME280;46102;39.012;-7.064;2022-07-11T10:12:25;98074.44;;;37.71;15.88
60240;BME280;46102;39.012;-7.064;2022-07-11T10:14:26;98075.75;;;37.76;15.76
60240;BME280;46102;39.012;-7.064;2022-07-11T10:16:43;98070.34;;;37.89;15.14
60240;BME280;46102;39.012;-7.064;2022-07-11T10:18:56;98068.63;;;38.03;15.15
60240;BME280;46102;39.012;-7.064;2022-07-11T10:23:26;98074.44;;;38.48;13.24
60240;BME280;46102;39.012;-7.064;2022-07-11T10:25:36;98069.97;;;38.81;12.73
60240;BME280;46102;39.012;-7.064;2022-07-11T10:29:51;98066.84;;;39.02;12.49
60240;BME280;46102;39.012;-7.064;2022-07-11T10:32:19;98073.13;;;38.94;11.81
60240;BME280;46102;39.012;-7.064;2022-07-11T10:34:27;98074.16;;;38.97;12.15
60240;BME280;46102;39.012;-7.064;2022-07-11T10:36:29;98072.03;;;39.20;11.99
60240;BME280;46102;39.012;-7.064;2022-07-11T10:38:30;98067.81;;;39.38;12.04
60240;BME280;46102;39.012;-7.064;2022-07-11T10:42:47;98060.19;;;39.58;11.44
60240;BME280;46102;39.012;-7.064;2022-07-11T10:44:54;98062.72;;;39.84;11.20
60240;BME280;46102;39.012;-7.064;2022-07-11T10:46:55;98057.09;;;40.08;10.83